sensor_id;sensor_type;location;lat;lon;timestamp;pressure;altitude;pressure_sealevel;temperature;humidity
62634;BME280;48704;50.534;6.442;2022-09-19T00:00:52;95670.22;;;5.45;100.00
62634;BME280;48704;50.534;6.442;2022-09-19T00:03:17;95663.38;;;5.50;100.00
62634;BME280;48704;50.534;6.442;2022-09-19T00:05:43;95664.94;;;5.51;100.00
62634;BME280;48704;50.534;6.442;2022-09-19T00:08:08;95663.03;;;5.48;100.00
62634;BME280;48704;50.534;6.442;2022-09-19T00:10:41;95661.16;;;5.45;100.00
62634;BME280;48704;50.534;6.442;2022-09-19T00:13:07;95661.72;;;5.52;100.00
62634;BME280;48704;50.534;6.442;2022-09-19T00:15:46;95671.44;;;5.57;100.00
62634;BME280;48704;50.534;6.442;2022-09-19T00:18:12;95675.28;;;5.59;100.00
62634;BME280;48704;50.534;6.442;2022-09-19T00:20:41;95668.09;;;5.62;100.00
62634;BME280;48704;50.534;6.442;2022-09-19T00:23:08;95672.78;;;5.52;100.00
62634;BME280;48704;50.534;6.442;2022-09-19T00:26:02;95670.78;;;5.53;100.00
62634;BME280;48704;50.534;6.442;2022-09-19T00:28:28;95675.44;;;5.56;100.00
62634;BME280;48704;50.534;6.442;2022-09-19T00:30:55;95662.13;;;5.63;100.00
62634;BME280;48704;50.534;6.442;2022-09-19T00:33:22;95663.72;;;5.52;100.00
62634;BME280;48704;50.534;6.442;2022-09-19T00:35:48;95672.19;;;5.57;100.00
62634;BME280;48704;50.534;6.442;2022-09-19T00:38:20;95676.31;;;5.53;100.00
62634;BME280;48704;50.534;6.442;2022-09-19T00:40:46;95675.72;;;5.58;100.00
62634;BME280;48704;50.534;6.442;2022-09-19T00:43:13;95679.94;;;5.62;100.00
62634;BME280;48704;50.534;6.442;2022-09-19T00:45:39;95682.50;;;5.57;100.00
62634;BME280;48704;50.534;6.442;2022-09-19T00:48:04;95678.06;;;5.59;100.00
62634;BME280;48704;50.534;6.442;2022-09-19T00:50:30;95680.97;;;5.56;100.00
62634;BME280;48704;50.534;6.442;2022-09-19T00:53:04;95678.97;;;5.56;100.00
62634;BME280;48704;50.534;6.442;2022-09-19T00:55:31;95673.63;;;5.62;100.00
62634;BME280;48704;50.534;6.442;2022-09-19T00:58:01;95681.69;;;5.69;100.00
62634;BME280;48704;50.534;6.442;2022-09-19T01:00:30;95678.59;;;5.67;100.00
62634;BME280;48704;50.534;6.442;2022-09-19T01:02:57;95675.84;;;5.67;100.00
62634;BME280;48704;50.534;6.442;2022-09-19T01:05:27;95685.03;;;5.64;100.00
62634;BME280;48704;50.534;6.442;2022-09-19T01:08:24;95691.44;;;5.74;100.00
62634;BME280;48704;50.534;6.442;2022-09-19T01:16:33;95695.31;;;5.76;100.00
62634;BME280;48704;50.534;6.442;2022-09-19T01:22:01;95689.56;;;5.83;100.00
62634;BME280;48704;50.534;6.442;2022-09-19T01:24:41;95689.00;;;5.88;100.00
62634;BME280;48704;50.534;6.442;2022-09-19T01:27:33;95688.88;;;6.04;100.00
62634;BME280;48704;50.534;6.442;2022-09-19T01:30:08;95693.09;;;5.96;100.00
62634;BME280;48704;50.534;6.442;2022-09-19T01:32:39;95686.00;;;5.95;100.00
62634;BME280;48704;50.534;6.442;2022-09-19T01:35:10;95690.31;;;5.96;100.00
62634;BME280;48704;50.534;6.442;2022-09-19T01:37:45;95697.84;;;5.96;100.00
62634;BME280;48704;50.534;6.442;2022-09-19T01:40:13;95697.28;;;5.88;100.00
62634;BME280;48704;50.534;6.442;2022-09-19T01:42:53;95699.06;;;5.82;100.00
62634;BME280;48704;50.534;6.442;2022-09-19T01:45:26;95695.75;;;5.87;100.00
62634;BME280;48704;50.534;6.442;2022-09-19T01:59:05;95710.03;;;5.73;100.00
62634;BME280;48704;50.534;6.442;2022-09-19T02:01:40;95706.69;;;5.78;100.00
62634;BME280;48704;50.534;6.442;2022-09-19T02:04:27;95707.94;;;5.90;100.00
62634;BME280;48704;50.534;6.442;2022-09-19T02:10:02;95708.81;;;5.74;100.00
62634;BME280;48704;50.534;6.442;2022-09-19T02:12:32;95716.53;;;5.79;100.00
62634;BME280;48704;50.534;6.442;2022-09-19T02:15:01;95724.16;;;5.62;100.00
62634;BME280;48704;50.534;6.442;2022-09-19T02:17:40;95717.66;;;5.69;100.00
62634;BME280;48704;50.534;6.442;2022-09-19T02:20:14;95724.84;;;5.54;100.00
62634;BME280;48704;50.534;6.442;2022-09-19T02:22:48;95728.81;;;5.53;100.00
62634;BME280;48704;50.534;6.442;2022-09-19T02:25:18;95726.06;;;5.53;100.00
62634;BME280;48704;50.534;6.442;2022-09-19T02:27:50;95722.72;;;5.58;100.00
62634;BME280;48704;50.534;6.442;2022-09-19T02:30:18;95723.41;;;5.62;100.00
62634;BME280;48704;50.534;6.442;2022-09-19T02:32:48;95725.81;;;5.60;100.00
62634;BME280;48704;50.534;6.442;2022-09-19T02:35:40;95730.47;;;5.63;100.00
62634;BME280;48704;50.534;6.442;2022-09-19T02:38:18;95734.44;;;5.62;100.00
62634;BME280;48704;50.534;6.442;2022-09-19T02:40:56;95727.63;;;5.54;100.00
62634;BME280;48704;50.534;6.442;2022-09-19T02:46:31;95733.78;;;5.45;100.00
62634;BME280;48704;50.534;6.442;2022-09-19T02:49:05;95732.13;;;5.48;100.00
62634;BME280;48704;50.534;6.442;2022-09-19T02:51:37;95724.28;;;5.59;100.00
62634;BME280;48704;50.534;6.442;2022-09-19T02:54:13;95730.59;;;5.47;100.00
62634;BME280;48704;50.534;6.442;2022-09-19T02:56:40;95730.34;;;5.41;100.00
62634;BME280;48704;50.534;6.442;2022-09-19T02:59:26;95730.47;;;5.50;100.00
62634;BME280;48704;50.534;6.442;2022-09-19T03:02:01;95734.25;;;5.56;100.00
62634;BME280;48704;50.534;6.442;2022-09-19T03:04:32;95725.81;;;5.60;100.00
62634;BME280;48704;50.534;6.442;2022-09-19T03:07:06;95743.53;;;5.50;100.00
62634;BME280;48704;50.534;6.442;2022-09-19T03:09:41;95740.44;;;5.48;100.00
62634;BME280;48704;50.534;6.442;2022-09-19T03:12:20;95741.31;;;5.45;100.00
62634;BME280;48704;50.534;6.442;2022-09-19T03:14:49;95748.59;;;5.38;100.00
62634;BME280;48704;50.534;6.442;2022-09-19T03:17:16;95738.22;;;5.43;100.00
62634;BME280;48704;50.534;6.442;2022-09-19T03:19:47;95738.41;;;5.35;100.00
62634;BME280;48704;50.534;6.442;2022-09-19T03:22:13;95741.38;;;5.28;100.00
62634;BME280;48704;50.534;6.442;2022-09-19T03:24:38;95744.81;;;5.32;100.00
62634;BME280;48704;50.534;6.442;2022-09-19T03:27:04;95742.72;;;5.36;100.00
62634;BME280;48704;50.534;6.442;2022-09-19T03:29:30;95744.16;;;5.41;100.00
62634;BME280;48704;50.534;6.442;2022-09-19T03:31:56;95753.84;;;5.20;100.00
62634;BME280;48704;50.534;6.442;2022-09-19T03:34:21;95749.22;;;5.17;100.00
62634;BME280;48704;50.534;6.442;2022-09-19T03:36:47;95752.66;;;5.34;100.00
62634;BME280;48704;50.534;6.442;2022-09-19T03:39:13;95752.97;;;5.23;100.00
62634;BME280;48704;50.534;6.442;2022-09-19T03:41:38;95753.44;;;5.34;100.00
62634;BME280;48704;50.534;6.442;2022-09-19T03:44:03;95753.44;;;5.34;100.00
62634;BME280;48704;50.534;6.442;2022-09-19T03:46:30;95756.06;;;5.25;100.00
62634;BME280;48704;50.534;6.442;2022-09-19T03:48:56;95755.41;;;5.21;100.00
62634;BME280;48704;50.534;6.442;2022-09-19T03:51:22;95762.94;;;5.33;100.00
62634;BME280;48704;50.534;6.442;2022-09-19T03:53:48;95765.06;;;5.42;100.00
62634;BME280;48704;50.534;6.442;2022-09-19T03:56:14;95755.19;;;5.28;100.00
62634;BME280;48704;50.534;6.442;2022-09-19T03:58:40;95758.91;;;5.09;100.00
62634;BME280;48704;50.534;6.442;2022-09-19T04:01:06;95763.03;;;5.17;100.00
62634;BME280;48704;50.534;6.442;2022-09-19T04:03:33;95757.63;;;5.26;100.00
62634;BME280;48704;50.534;6.442;2022-09-19T04:05:59;95765.56;;;5.24;100.00
62634;BME280;48704;50.534;6.442;2022-09-19T04:08:24;95767.34;;;5.18;100.00
62634;BME280;48704;50.534;6.442;2022-09-19T04:10:50;95767.34;;;5.18;100.00
62634;BME280;48704;50.534;6.442;2022-09-19T04:13:16;95773.88;;;5.24;100.00
62634;BME280;48704;50.534;6.442;2022-09-19T04:15:41;95770.91;;;5.31;100.00
62634;BME280;48704;50.534;6.442;2022-09-19T04:18:07;95783.97;;;5.44;100.00
62634;BME280;48704;50.534;6.442;2022-09-19T04:20:32;95779.78;;;5.52;100.00
62634;BME280;48704;50.534;6.442;2022-09-19T04:22:59;95776.34;;;5.60;100.00
62634;BME280;48704;50.534;6.442;2022-09-19T04:25:27;95787.31;;;5.64;100.00
62634;BME280;48704;50.534;6.442;2022-09-19T04:27:55;95787.75;;;5.75;100.00
62634;BME280;48704;50.534;6.442;2022-09-19T04:30:20;95781.47;;;5.75;100.00
62634;BME280;48704;50.534;6.442;2022-09-19T04:32:49;95789.53;;;5.69;100.00
62634;BME280;48704;50.534;6.442;2022-09-19T04:35:15;95787.72;;;5.91;100.00
62634;BME280;48704;50.534;6.442;2022-09-19T04:37:41;95795.09;;;5.94;100.00
62634;BME280;48704;50.534;6.442;2022-09-19T04:40:06;95787.47;;;5.98;100.00
62634;BME280;48704;50.534;6.442;2022-09-19T04:42:32;95794.22;;;5.97;100.00
62634;BME280;48704;50.534;6.442;2022-09-19T04:45:01;95803.72;;;5.96;100.00
62634;BME280;48704;50.534;6.442;2022-09-19T04:47:26;95801.53;;;5.91;100.00
62634;BME280;48704;50.534;6.442;2022-09-19T04:49:53;95798.44;;;5.89;100.00
62634;BME280;48704;50.534;6.442;2022-09-19T04:52:20;95797.97;;;6.03;100.00
62634;BME280;48704;50.534;6.442;2022-09-19T04:54:46;95802.28;;;6.04;100.00
62634;BME280;48704;50.534;6.442;2022-09-19T04:57:13;95802.19;;;6.08;100.00
62634;BME280;48704;50.534;6.442;2022-09-19T04:59:38;95808.81;;;6.11;100.00
62634;BME280;48704;50.534;6.442;2022-09-19T05:02:04;95811.38;;;6.05;100.00
62634;BME280;48704;50.534;6.442;2022-09-19T05:04:32;95817.91;;;6.24;100.00
62634;BME280;48704;50.534;6.442;2022-09-19T05:06:57;95817.91;;;6.24;100.00
62634;BME280;48704;50.534;6.442;2022-09-19T05:09:22;95814.59;;;6.29;100.00
62634;BME280;48704;50.534;6.442;2022-09-19T05:11:49;95822.75;;;6.32;100.00
62634;BME280;48704;50.534;6.442;2022-09-19T05:14:14;95819.78;;;6.27;100.00
62634;BME280;48704;50.534;6.442;2022-09-19T05:16:40;95816.13;;;6.30;100.00
62634;BME280;48704;50.534;6.442;2022-09-19T05:19:06;95820.75;;;6.33;100.00
62634;BME280;48704;50.534;6.442;2022-09-19T05:21:31;95823.22;;;6.31;100.00
62634;BME280;48704;50.534;6.442;2022-09-19T05:23:58;95825.66;;;6.29;100.00
62634;BME280;48704;50.534;6.442;2022-09-19T05:26:24;95827.41;;;6.23;100.00
62634;BME280;48704;50.534;6.442;2022-09-19T05:28:49;95823.22;;;6.31;100.00
62634;BME280;48704;50.534;6.442;2022-09-19T05:31:15;95830.47;;;6.50;100.00
62634;BME280;48704;50.534;6.442;2022-09-19T05:33:42;95835.59;;;6.39;100.00
62634;BME280;48704;50.534;6.442;2022-09-19T05:36:07;95836.25;;;6.43;100.00
62634;BME280;48704;50.534;6.442;2022-09-19T05:38:32;95837.59;;;6.26;100.00
62634;BME280;48704;50.534;6.442;2022-09-19T05:41:00;95834.03;;;6.38;100.00
62634;BME280;48704;50.534;6.442;2022-09-19T05:43:26;95844.88;;;6.45;100.00
62634;BME280;48704;50.534;6.442;2022-09-19T05:45:53;95838.13;;;6.46;100.00
62634;BME280;48704;50.534;6.442;2022-09-19T05:48:19;95852.63;;;6.50;100.00
62634;BME280;48704;50.534;6.442;2022-09-19T05:50:47;95852.19;;;6.64;100.00
62634;BME280;48704;50.534;6.442;2022-09-19T05:53:14;95847.66;;;6.58;100.00
62634;BME280;48704;50.534;6.442;2022-09-19T05:55:58;95849.63;;;6.57;100.00
62634;BME280;48704;50.534;6.442;2022-09-19T05:58:24;95858.50;;;6.65;100.00
62634;BME280;48704;50.534;6.442;2022-09-19T06:00:50;95851.28;;;6.67;100.00
62634;BME280;48704;50.534;6.442;2022-09-19T06:03:16;95869.44;;;6.68;100.00
62634;BME280;48704;50.534;6.442;2022-09-19T06:05:43;95861.44;;;6.70;100.00
62634;BME280;48704;50.534;6.442;2022-09-19T06:08:11;95858.59;;;6.61;100.00
62634;BME280;48704;50.534;6.442;2022-09-19T06:10:38;95863.47;;;6.57;100.00
62634;BME280;48704;50.534;6.442;2022-09-19T06:13:04;95868.69;;;6.55;100.00
62634;BME280;48704;50.534;6.442;2022-09-19T06:15:30;95873.31;;;6.71;100.00
62634;BME280;48704;50.534;6.442;2022-09-19T06:17:56;95874.72;;;6.76;100.00
62634;BME280;48704;50.534;6.442;2022-09-19T06:20:22;95882.59;;;6.90;100.00
62634;BME280;48704;50.534;6.442;2022-09-19T06:22:47;95886.13;;;6.90;100.00
62634;BME280;48704;50.534;6.442;2022-09-19T06:25:13;95887.91;;;6.84;100.00
62634;BME280;48704;50.534;6.442;2022-09-19T06:27:39;95891.22;;;6.92;100.00
62634;BME280;48704;50.534;6.442;2022-09-19T06:30:05;95896.59;;;7.08;100.00
62634;BME280;48704;50.534;6.442;2022-09-19T06:32:31;95896.59;;;7.08;100.00
62634;BME280;48704;50.534;6.442;2022-09-19T06:34:56;95900.59;;;7.07;100.00
62634;BME280;48704;50.534;6.442;2022-09-19T06:37:22;95904.41;;;6.88;100.00
62634;BME280;48704;50.534;6.442;2022-09-19T06:39:47;95900.59;;;7.07;100.00
62634;BME280;48704;50.534;6.442;2022-09-19T06:42:12;95911.13;;;7.12;100.00
62634;BME280;48704;50.534;6.442;2022-09-19T06:44:38;95909.66;;;7.20;100.00
62634;BME280;48704;50.534;6.442;2022-09-19T06:47:03;95908.44;;;7.21;100.00
62634;BME280;48704;50.534;6.442;2022-09-19T06:49:30;95908.53;;;7.30;100.00
62634;BME280;48704;50.534;6.442;2022-09-19T06:51:55;95909.22;;;7.09;100.00
62634;BME280;48704;50.534;6.442;2022-09-19T06:54:22;95913.31;;;7.17;100.00
62634;BME280;48704;50.534;6.442;2022-09-19T06:56:48;95916.75;;;7.21;100.00
62634;BME280;48704;50.534;6.442;2022-09-19T06:59:15;95920.91;;;7.38;100.00
62634;BME280;48704;50.534;6.442;2022-09-19T07:01:42;95919.94;;;7.32;100.00
62634;BME280;48704;50.534;6.442;2022-09-19T07:04:07;95916.84;;;7.30;100.00
62634;BME280;48704;50.534;6.442;2022-09-19T07:06:32;95917.97;;;7.20;100.00
62634;BME280;48704;50.534;6.442;2022-09-19T07:09:01;95924.50;;;7.26;100.00
62634;BME280;48704;50.534;6.442;2022-09-19T07:11:28;95920.66;;;7.46;100.00
62634;BME280;48704;50.534;6.442;2022-09-19T07:13:53;95934.47;;;7.36;100.00
62634;BME280;48704;50.534;6.442;2022-09-19T07:16:18;95930.69;;;7.30;100.00
62634;BME280;48704;50.534;6.442;2022-09-19T07:18:44;95932.63;;;7.43;100.00
62634;BME280;48704;50.534;6.442;2022-09-19T07:21:09;95934.72;;;7.51;100.00
62634;BME280;48704;50.534;6.442;2022-09-19T07:23:34;95936.16;;;7.56;100.00
62634;BME280;48704;50.534;6.442;2022-09-19T07:25:59;95940.78;;;7.59;100.00
62634;BME280;48704;50.534;6.442;2022-09-19T07:28:26;95941.09;;;7.39;100.00
62634;BME280;48704;50.534;6.442;2022-09-19T07:30:52;95941.03;;;7.52;100.00
62634;BME280;48704;50.534;6.442;2022-09-19T07:33:18;95945.69;;;7.55;100.00
62634;BME280;48704;50.534;6.442;2022-09-19T07:35:49;95944.31;;;7.72;100.00
62634;BME280;48704;50.534;6.442;2022-09-19T07:38:17;95946.56;;;7.86;100.00
62634;BME280;48704;50.534;6.442;2022-09-19T07:40:44;95952.44;;;7.88;100.00
62634;BME280;48704;50.534;6.442;2022-09-19T07:43:13;95954.13;;;8.08;100.00
62634;BME280;48704;50.534;6.442;2022-09-19T07:45:43;95946.09;;;7.88;100.00
62634;BME280;48704;50.534;6.442;2022-09-19T07:48:10;95956.50;;;7.96;100.00
62634;BME280;48704;50.534;6.442;2022-09-19T07:50:36;95959.78;;;8.04;100.00
62634;BME280;48704;50.534;6.442;2022-09-19T07:53:03;95960.97;;;8.16;100.00
62634;BME280;48704;50.534;6.442;2022-09-19T07:55:30;95969.22;;;8.07;100.00
62634;BME280;48704;50.534;6.442;2022-09-19T07:57:57;95969.50;;;8.30;100.00
62634;BME280;48704;50.534;6.442;2022-09-19T08:00:24;95977.00;;;8.21;100.00
62634;BME280;48704;50.534;6.442;2022-09-19T08:02:57;95967.75;;;8.15;100.00
62634;BME280;48704;50.534;6.442;2022-09-19T08:05:23;95976.38;;;8.17;100.00
62634;BME280;48704;50.534;6.442;2022-09-19T08:07:49;95976.69;;;8.19;100.00
62634;BME280;48704;50.534;6.442;2022-09-19T08:10:15;95975.44;;;8.63;100.00
62634;BME280;48704;50.534;6.442;2022-09-19T08:12:41;95980.72;;;8.70;100.00
62634;BME280;48704;50.534;6.442;2022-09-19T08:15:09;95988.66;;;8.50;100.00
62634;BME280;48704;50.534;6.442;2022-09-19T08:17:34;95984.34;;;8.58;100.00
62634;BME280;48704;50.534;6.442;2022-09-19T08:20:01;95983.41;;;8.52;100.00
62634;BME280;48704;50.534;6.442;2022-09-19T08:22:28;95985.22;;;8.46;100.00
62634;BME280;48704;50.534;6.442;2022-09-19T08:24:53;95990.97;;;8.83;100.00
62634;BME280;48704;50.534;6.442;2022-09-19T08:27:18;95998.97;;;8.81;100.00
62634;BME280;48704;50.534;6.442;2022-09-19T08:29:45;95988.63;;;8.81;100.00
62634;BME280;48704;50.534;6.442;2022-09-19T08:32:11;95994.75;;;8.67;100.00
62634;BME280;48704;50.534;6.442;2022-09-19T08:34:37;96005.63;;;8.52;100.00
62634;BME280;48704;50.534;6.442;2022-09-19T08:37:02;96002.06;;;8.83;100.00
62634;BME280;48704;50.534;6.442;2022-09-19T08:39:27;96003.66;;;8.93;100.00
62634;BME280;48704;50.534;6.442;2022-09-19T08:44:33;96014.53;;;9.09;100.00
62634;BME280;48704;50.534;6.442;2022-09-19T08:47:09;96010.53;;;9.10;100.00
62634;BME280;48704;50.534;6.442;2022-09-19T08:49:41;96004.03;;;9.13;100.00
62634;BME280;48704;50.534;6.442;2022-09-19T08:52:36;96015.94;;;9.14;100.00
62634;BME280;48704;50.534;6.442;2022-09-19T08:55:07;96012.44;;;9.31;100.00
62634;BME280;48704;50.534;6.442;2022-09-19T08:57:38;96017.16;;;9.62;100.00
62634;BME280;48704;50.534;6.442;2022-09-19T09:00:21;96008.59;;;9.38;100.00
62634;BME280;48704;50.534;6.442;2022-09-19T09:02:57;96008.84;;;9.13;100.00
62634;BME280;48704;50.534;6.442;2022-09-19T09:11:05;96013.78;;;9.94;100.00
62634;BME280;48704;50.534;6.442;2022-09-19T09:24:22;96016.81;;;9.51;100.00
62634;BME280;48704;50.534;6.442;2022-09-19T09:26:52;96013.44;;;9.74;100.00
62634;BME280;48704;50.534;6.442;2022-09-19T09:29:23;96012.56;;;9.95;100.00
62634;BME280;48704;50.534;6.442;2022-09-19T09:31:59;96011.94;;;9.91;100.00
62634;BME280;48704;50.534;6.442;2022-09-19T09:34:49;96013.44;;;10.56;100.00
62634;BME280;48704;50.534;6.442;2022-09-19T09:37:44;96009.13;;;10.55;100.00
62634;BME280;48704;50.534;6.442;2022-09-19T09:40:15;96012.25;;;10.39;100.00
62634;BME280;48704;50.534;6.442;2022-09-19T09:43:05;96022.91;;;9.86;100.00
62634;BME280;48704;50.534;6.442;2022-09-19T09:48:17;96018.09;;;10.41;100.00
62634;BME280;48704;50.534;6.442;2022-09-19T09:53:54;96024.56;;;10.75;100.00
62634;BME280;48704;50.534;6.442;2022-09-19T09:56:36;96023.91;;;10.80;100.00
62634;BME280;48704;50.534;6.442;2022-09-19T10:04:43;96023.66;;;10.68;100.00
62634;BME280;48704;50.534;6.442;2022-09-19T10:07:17;96024.75;;;11.13;100.00
62634;BME280;48704;50.534;6.442;2022-09-19T10:09:53;96030.19;;;11.97;100.00
62634;BME280;48704;50.534;6.442;2022-09-19T10:12:39;96017.31;;;11.67;100.00
62634;BME280;48704;50.534;6.442;2022-09-19T10:15:07;96025.31;;;11.83;100.00
62634;BME280;48704;50.534;6.442;2022-09-19T10:17:36;96021.97;;;11.70;100.00
62634;BME280;48704;50.534;6.442;2022-09-19T10:20:09;96026.63;;;11.97;100.00
62634;BME280;48704;50.534;6.442;2022-09-19T10:22:40;96015.03;;;11.89;100.00
62634;BME280;48704;50.534;6.442;2022-09-19T10:25:12;96016.09;;;11.68;100.00
62634;BME280;48704;50.534;6.442;2022-09-19T10:27:39;96012.38;;;12.48;100.00
62634;BME280;48704;50.534;6.442;2022-09-19T10:30:14;96010.94;;;12.53;100.00
62634;BME280;48704;50.534;6.442;2022-09-19T10:32:42;95998.22;;;11.18;100.00
62634;BME280;48704;50.534;6.442;2022-09-19T10:35:34;96015.81;;;12.28;100.00
62634;BME280;48704;50.534;6.442;2022-09-19T10:38:13;96014.88;;;12.46;100.00
62634;BME280;48704;50.534;6.442;2022-09-19T10:40:57;96004.78;;;13.78;94.38
62634;BME280;48704;50.534;6.442;2022-09-19T10:43:27;96008.72;;;13.16;94.49
62634;BME280;48704;50.534;6.442;2022-09-19T10:45:57;96009.25;;;12.17;100.00
62634;BME280;48704;50.534;6.442;2022-09-19T10:48:30;96002.91;;;11.92;100.00
62634;BME280;48704;50.534;6.442;2022-09-19T10:50:57;96005.13;;;11.31;100.00
62634;BME280;48704;50.534;6.442;2022-09-19T10:53:30;96013.28;;;11.68;100.00
62634;BME280;48704;50.534;6.442;2022-09-19T10:56:01;96009.38;;;11.18;100.00
62634;BME280;48704;50.534;6.442;2022-09-19T10:58:29;96007.31;;;11.84;100.00
62634;BME280;48704;50.534;6.442;2022-09-19T11:00:59;96014.41;;;13.21;93.80
62634;BME280;48704;50.534;6.442;2022-09-19T11:03:33;96018.53;;;13.96;92.38
62634;BME280;48704;50.534;6.442;2022-09-19T11:08:38;96007.19;;;12.70;96.40
62634;BME280;48704;50.534;6.442;2022-09-19T11:13:44;96011.63;;;12.77;88.47
62634;BME280;48704;50.534;6.442;2022-09-19T11:16:29;96014.88;;;12.46;87.79
62634;BME280;48704;50.534;6.442;2022-09-19T11:19:14;96016.84;;;12.99;89.75
62634;BME280;48704;50.534;6.442;2022-09-19T11:27:26;96022.69;;;13.65;84.18
62634;BME280;48704;50.534;6.442;2022-09-19T11:30:14;96022.00;;;13.06;90.87
62634;BME280;48704;50.534;6.442;2022-09-19T11:35:45;96015.03;;;12.28;89.80
62634;BME280;48704;50.534;6.442;2022-09-19T11:38:42;96034.59;;;12.96;83.35
62634;BME280;48704;50.534;6.442;2022-09-19T11:41:33;96020.88;;;12.54;86.02
62634;BME280;48704;50.534;6.442;2022-09-19T11:44:14;96024.22;;;12.04;86.50
62634;BME280;48704;50.534;6.442;2022-09-19T12:00:36;96017.88;;;12.57;83.00
62634;BME280;48704;50.534;6.442;2022-09-19T12:03:28;96007.75;;;12.45;80.66
62634;BME280;48704;50.534;6.442;2022-09-19T12:06:15;96016.63;;;12.44;84.47
62634;BME280;48704;50.534;6.442;2022-09-19T12:09:01;96015.44;;;11.73;90.94
62634;BME280;48704;50.534;6.442;2022-09-19T12:11:44;96014.69;;;11.39;93.06
62634;BME280;48704;50.534;6.442;2022-09-19T12:14:17;96018.16;;;11.25;93.32
62634;BME280;48704;50.534;6.442;2022-09-19T12:17:00;96017.44;;;11.16;96.03
62634;BME280;48704;50.534;6.442;2022-09-19T12:19:42;96013.38;;;11.26;98.97
62634;BME280;48704;50.534;6.442;2022-09-19T12:22:17;96013.97;;;11.54;94.88
62634;BME280;48704;50.534;6.442;2022-09-19T12:25:08;96013.72;;;12.67;90.04
62634;BME280;48704;50.534;6.442;2022-09-19T12:27:39;96015.09;;;12.87;92.90
62634;BME280;48704;50.534;6.442;2022-09-19T12:30:13;96012.69;;;13.24;89.63
62634;BME280;48704;50.534;6.442;2022-09-19T12:33:27;96016.91;;;13.69;76.83
62634;BME280;48704;50.534;6.442;2022-09-19T12:36:35;95993.91;;;14.72;66.87
62634;BME280;48704;50.534;6.442;2022-09-19T12:39:37;96008.00;;;15.41;67.36
62634;BME280;48704;50.534;6.442;2022-09-19T12:42:13;95987.94;;;16.01;62.44
62634;BME280;48704;50.534;6.442;2022-09-19T12:44:52;95988.16;;;14.87;62.80
62634;BME280;48704;50.534;6.442;2022-09-19T12:50:27;95995.28;;;14.82;72.05
62634;BME280;48704;50.534;6.442;2022-09-19T12:53:09;95990.16;;;15.44;72.20
62634;BME280;48704;50.534;6.442;2022-09-19T12:56:04;95990.75;;;16.01;64.53
62634;BME280;48704;50.534;6.442;2022-09-19T13:01:27;95988.09;;;16.46;66.43
62634;BME280;48704;50.534;6.442;2022-09-19T13:04:26;95997.84;;;15.12;59.98
62634;BME280;48704;50.534;6.442;2022-09-19T13:07:07;95988.84;;;14.50;62.91
62634;BME280;48704;50.534;6.442;2022-09-19T13:12:50;95995.31;;;15.51;62.85
62634;BME280;48704;50.534;6.442;2022-09-19T13:15:53;95996.72;;;15.72;63.10
62634;BME280;48704;50.534;6.442;2022-09-19T13:18:21;95989.88;;;14.53;66.04
62634;BME280;48704;50.534;6.442;2022-09-19T13:21:12;95988.09;;;14.76;67.81
62634;BME280;48704;50.534;6.442;2022-09-19T13:23:58;95975.75;;;15.67;63.34
62634;BME280;48704;50.534;6.442;2022-09-19T13:26:27;95978.75;;;16.07;60.44
62634;BME280;48704;50.534;6.442;2022-09-19T13:28:58;95979.56;;;14.96;61.15
62634;BME280;48704;50.534;6.442;2022-09-19T13:33:54;95972.28;;;15.84;62.07
62634;BME280;48704;50.534;6.442;2022-09-19T13:38:53;95989.44;;;15.91;61.47
62634;BME280;48704;50.534;6.442;2022-09-19T13:41:43;95976.31;;;14.46;58.77
62634;BME280;48704;50.534;6.442;2022-09-19T13:44:35;95970.66;;;14.20;58.92
62634;BME280;48704;50.534;6.442;2022-09-19T13:47:19;95968.56;;;13.04;63.26
62634;BME280;48704;50.534;6.442;2022-09-19T13:52:36;95964.22;;;14.14;58.91
62634;BME280;48704;50.534;6.442;2022-09-19T13:57:40;95966.84;;;15.32;55.47
62634;BME280;48704;50.534;6.442;2022-09-19T14:00:31;95971.81;;;15.11;57.15
62634;BME280;48704;50.534;6.442;2022-09-19T14:03:05;95969.78;;;14.34;58.74
62634;BME280;48704;50.534;6.442;2022-09-19T14:05:35;95969.66;;;14.23;62.15
62634;BME280;48704;50.534;6.442;2022-09-19T14:08:05;95965.59;;;15.38;60.25
62634;BME280;48704;50.534;6.442;2022-09-19T14:15:48;95966.09;;;15.74;58.95
62634;BME280;48704;50.534;6.442;2022-09-19T14:21:49;95955.94;;;17.36;53.98
62634;BME280;48704;50.534;6.442;2022-09-19T14:29:55;95970.69;;;16.42;57.56
62634;BME280;48704;50.534;6.442;2022-09-19T14:32:32;95978.84;;;16.29;58.91
62634;BME280;48704;50.534;6.442;2022-09-19T14:35:46;95973.03;;;15.84;59.13
62634;BME280;48704;50.534;6.442;2022-09-19T14:39:32;95968.22;;;16.78;56.04
62634;BME280;48704;50.534;6.442;2022-09-19T14:41:50;95971.06;;;17.11;55.56
62634;BME280;48704;50.534;6.442;2022-09-19T14:44:44;95957.25;;;15.92;56.54
62634;BME280;48704;50.534;6.442;2022-09-19T14:47:25;95970.53;;;17.24;54.64
62634;BME280;48704;50.534;6.442;2022-09-19T14:50:07;95976.66;;;16.78;55.53
62634;BME280;48704;50.534;6.442;2022-09-19T14:52:39;95967.44;;;16.77;54.38
62634;BME280;48704;50.534;6.442;2022-09-19T14:55:10;95960.84;;;15.98;56.72
62634;BME280;48704;50.534;6.442;2022-09-19T14:57:46;95970.59;;;15.23;60.90
62634;BME280;48704;50.534;6.442;2022-09-19T15:00:21;95953.59;;;15.01;56.68
62634;BME280;48704;50.534;6.442;2022-09-19T15:02:47;95962.06;;;15.44;56.07
62634;BME280;48704;50.534;6.442;2022-09-19T15:05:24;95957.78;;;15.54;56.06
62634;BME280;48704;50.534;6.442;2022-09-19T15:07:50;95965.16;;;17.09;52.66
62634;BME280;48704;50.534;6.442;2022-09-19T15:12:50;95966.44;;;17.30;51.41
62634;BME280;48704;50.534;6.442;2022-09-19T15:15:16;95956.97;;;16.66;52.77
62634;BME280;48704;50.534;6.442;2022-09-19T15:17:41;95962.38;;;15.51;55.48
62634;BME280;48704;50.534;6.442;2022-09-19T15:22:56;95958.06;;;14.82;59.14
62634;BME280;48704;50.534;6.442;2022-09-19T15:25:30;95963.00;;;15.29;58.14
62634;BME280;48704;50.534;6.442;2022-09-19T15:28:00;95964.41;;;16.86;56.12